sensor_id;sensor_type;location;lat;lon;timestamp;P1;durP1;ratioP1;P2;durP2;ratioP2
49834;SDS011;35729;52.090;13.162;2022-12-07T00:01:45;16.77;;;10.30;;
49834;SDS011;35729;52.090;13.162;2022-12-07T00:04:17;16.38;;;9.63;;
49834;SDS011;35729;52.090;13.162;2022-12-07T00:06:49;14.20;;;8.82;;
49834;SDS011;35729;52.090;13.162;2022-12-07T00:09:19;14.52;;;9.32;;
49834;SDS011;35729;52.090;13.162;2022-12-07T00:11:49;12.80;;;8.35;;
49834;SDS011;35729;52.090;13.162;2022-12-07T00:14:18;13.73;;;10.18;;
49834;SDS011;35729;52.090;13.162;2022-12-07T00:16:48;12.27;;;8.73;;
49834;SDS011;35729;52.090;13.162;2022-12-07T00:19:20;12.57;;;8.18;;
49834;SDS011;35729;52.090;13.162;2022-12-07T00:21:48;13.20;;;8.43;;
49834;SDS011;35729;52.090;13.162;2022-12-07T00:24:17;12.93;;;8.23;;
49834;SDS011;35729;52.090;13.162;2022-12-07T00:26:46;11.38;;;7.60;;
49834;SDS011;35729;52.090;13.162;2022-12-07T00:29:15;11.38;;;8.15;;
49834;SDS011;35729;52.090;13.162;2022-12-07T00:31:45;12.45;;;8.40;;
49834;SDS011;35729;52.090;13.162;2022-12-07T00:34:15;12.93;;;8.85;;
49834;SDS011;35729;52.090;13.162;2022-12-07T00:36:48;22.33;;;13.57;;
49834;SDS011;35729;52.090;13.162;2022-12-07T00:39:17;11.13;;;7.68;;
49834;SDS011;35729;52.090;13.162;2022-12-07T00:41:46;10.70;;;7.45;;
49834;SDS011;35729;52.090;13.162;2022-12-07T00:44:14;10.60;;;7.72;;
49834;SDS011;35729;52.090;13.162;2022-12-07T00:46:43;9.85;;;7.07;;
49834;SDS011;35729;52.090;13.162;2022-12-07T00:49:11;11.27;;;8.23;;
49834;SDS011;35729;52.090;13.162;2022-12-07T00:51:40;10.07;;;7.45;;
49834;SDS011;35729;52.090;13.162;2022-12-07T00:54:11;10.73;;;7.90;;
49834;SDS011;35729;52.090;13.162;2022-12-07T00:56:40;10.20;;;7.65;;
49834;SDS011;35729;52.090;13.162;2022-12-07T00:59:10;10.13;;;7.53;;
49834;SDS011;35729;52.090;13.162;2022-12-07T01:01:41;12.13;;;7.57;;
49834;SDS011;35729;52.090;13.162;2022-12-07T01:04:10;11.52;;;8.10;;
49834;SDS011;35729;52.090;13.162;2022-12-07T01:06:38;8.88;;;7.38;;
49834;SDS011;35729;52.090;13.162;2022-12-07T01:09:07;9.48;;;6.78;;
49834;SDS011;35729;52.090;13.162;2022-12-07T01:11:38;9.45;;;7.00;;
49834;SDS011;35729;52.090;13.162;2022-12-07T01:14:06;9.15;;;6.95;;
49834;SDS011;35729;52.090;13.162;2022-12-07T01:16:38;9.95;;;6.82;;
49834;SDS011;35729;52.090;13.162;2022-12-07T01:19:06;8.13;;;6.20;;
49834;SDS011;35729;52.090;13.162;2022-12-07T01:21:35;9.68;;;6.47;;
49834;SDS011;35729;52.090;13.162;2022-12-07T01:24:04;11.50;;;6.65;;
49834;SDS011;35729;52.090;13.162;2022-12-07T01:26:35;12.70;;;7.50;;
49834;SDS011;35729;52.090;13.162;2022-12-07T01:29:06;9.25;;;6.68;;
49834;SDS011;35729;52.090;13.162;2022-12-07T01:31:34;10.85;;;6.32;;
49834;SDS011;35729;52.090;13.162;2022-12-07T01:34:03;8.40;;;6.38;;
49834;SDS011;35729;52.090;13.162;2022-12-07T01:36:32;8.85;;;6.28;;
49834;SDS011;35729;52.090;13.162;2022-12-07T01:39:03;8.23;;;6.28;;
49834;SDS011;35729;52.090;13.162;2022-12-07T01:41:34;9.13;;;6.75;;
49834;SDS011;35729;52.090;13.162;2022-12-07T01:46:55;7.93;;;5.80;;
49834;SDS011;35729;52.090;13.162;2022-12-07T01:49:26;7.57;;;5.50;;
49834;SDS011;35729;52.090;13.162;2022-12-07T01:52:05;8.45;;;5.72;;
49834;SDS011;35729;52.090;13.162;2022-12-07T01:54:41;8.40;;;5.68;;
49834;SDS011;35729;52.090;13.162;2022-12-07T01:57:11;8.40;;;5.97;;
49834;SDS011;35729;52.090;13.162;2022-12-07T01:59:45;10.38;;;6.53;;
49834;SDS011;35729;52.090;13.162;2022-12-07T02:02:18;8.75;;;6.70;;
49834;SDS011;35729;52.090;13.162;2022-12-07T02:04:50;9.55;;;7.38;;
49834;SDS011;35729;52.090;13.162;2022-12-07T02:07:21;9.15;;;6.68;;
49834;SDS011;35729;52.090;13.162;2022-12-07T02:09:51;11.40;;;7.85;;
49834;SDS011;35729;52.090;13.162;2022-12-07T02:12:20;10.75;;;7.10;;
49834;SDS011;35729;52.090;13.162;2022-12-07T02:14:52;11.23;;;7.50;;
49834;SDS011;35729;52.090;13.162;2022-12-07T02:17:23;9.75;;;6.93;;
49834;SDS011;35729;52.090;13.162;2022-12-07T02:23:00;14.43;;;9.05;;
49834;SDS011;35729;52.090;13.162;2022-12-07T02:25:58;12.05;;;8.20;;
49834;SDS011;35729;52.090;13.162;2022-12-07T02:28:51;11.82;;;7.97;;
49834;SDS011;35729;52.090;13.162;2022-12-07T02:31:33;14.82;;;8.48;;
49834;SDS011;35729;52.090;13.162;2022-12-07T02:34:08;13.20;;;7.75;;
49834;SDS011;35729;52.090;13.162;2022-12-07T02:36:43;15.50;;;8.50;;
49834;SDS011;35729;52.090;13.162;2022-12-07T02:39:20;15.00;;;8.82;;
49834;SDS011;35729;52.090;13.162;2022-12-07T02:41:56;16.52;;;9.27;;
49834;SDS011;35729;52.090;13.162;2022-12-07T02:44:31;14.52;;;9.32;;
49834;SDS011;35729;52.090;13.162;2022-12-07T02:47:01;17.95;;;10.75;;
49834;SDS011;35729;52.090;13.162;2022-12-07T02:49:33;16.90;;;10.07;;
49834;SDS011;35729;52.090;13.162;2022-12-07T02:52:03;19.75;;;9.82;;
49834;SDS011;35729;52.090;13.162;2022-12-07T02:54:32;18.90;;;11.18;;
49834;SDS011;35729;52.090;13.162;2022-12-07T02:57:02;18.20;;;11.27;;
49834;SDS011;35729;52.090;13.162;2022-12-07T02:59:46;30.98;;;13.43;;
49834;SDS011;35729;52.090;13.162;2022-12-07T03:02:28;25.92;;;13.60;;
49834;SDS011;35729;52.090;13.162;2022-12-07T03:05:10;24.15;;;12.40;;
49834;SDS011;35729;52.090;13.162;2022-12-07T03:07:51;28.90;;;14.55;;
49834;SDS011;35729;52.090;13.162;2022-12-07T03:10:28;27.58;;;14.60;;
49834;SDS011;35729;52.090;13.162;2022-12-07T03:13:04;31.20;;;16.42;;
49834;SDS011;35729;52.090;13.162;2022-12-07T03:15:41;28.92;;;15.18;;
49834;SDS011;35729;52.090;13.162;2022-12-07T03:18:16;35.53;;;17.02;;
49834;SDS011;35729;52.090;13.162;2022-12-07T03:20:48;35.05;;;18.30;;
49834;SDS011;35729;52.090;13.162;2022-12-07T03:23:21;41.00;;;18.67;;
49834;SDS011;35729;52.090;13.162;2022-12-07T03:25:53;41.47;;;19.20;;
49834;SDS011;35729;52.090;13.162;2022-12-07T03:28:27;42.53;;;19.92;;
49834;SDS011;35729;52.090;13.162;2022-12-07T03:31:02;42.78;;;20.48;;
49834;SDS011;35729;52.090;13.162;2022-12-07T03:33:39;43.22;;;20.02;;
49834;SDS011;35729;52.090;13.162;2022-12-07T03:36:14;45.55;;;21.63;;
49834;SDS011;35729;52.090;13.162;2022-12-07T03:38:49;50.20;;;22.40;;
49834;SDS011;35729;52.090;13.162;2022-12-07T03:41:22;48.58;;;23.42;;
49834;SDS011;35729;52.090;13.162;2022-12-07T03:43:54;49.37;;;22.10;;
49834;SDS011;35729;52.090;13.162;2022-12-07T03:46:29;53.78;;;23.27;;
49834;SDS011;35729;52.090;13.162;2022-12-07T03:49:06;46.65;;;22.50;;
49834;SDS011;35729;52.090;13.162;2022-12-07T03:51:45;43.30;;;19.65;;
49834;SDS011;35729;52.090;13.162;2022-12-07T03:54:19;49.53;;;21.77;;
49834;SDS011;35729;52.090;13.162;2022-12-07T03:56:51;48.53;;;21.83;;
49834;SDS011;35729;52.090;13.162;2022-12-07T03:59:21;41.90;;;21.17;;
49834;SDS011;35729;52.090;13.162;2022-12-07T04:01:54;51.45;;;22.88;;
49834;SDS011;35729;52.090;13.162;2022-12-07T04:04:24;45.43;;;22.20;;
49834;SDS011;35729;52.090;13.162;2022-12-07T04:06:53;43.83;;;21.35;;
49834;SDS011;35729;52.090;13.162;2022-12-07T04:09:22;45.53;;;22.45;;
49834;SDS011;35729;52.090;13.162;2022-12-07T04:11:50;43.30;;;20.67;;
49834;SDS011;35729;52.090;13.162;2022-12-07T04:14:19;46.28;;;21.42;;
49834;SDS011;35729;52.090;13.162;2022-12-07T04:16:48;44.80;;;20.60;;
49834;SDS011;35729;52.090;13.162;2022-12-07T04:19:21;47.10;;;21.90;;
49834;SDS011;35729;52.090;13.162;2022-12-07T04:21:51;44.78;;;21.00;;
49834;SDS011;35729;52.090;13.162;2022-12-07T04:24:19;45.72;;;21.85;;
49834;SDS011;35729;52.090;13.162;2022-12-07T04:26:55;42.22;;;20.33;;
49834;SDS011;35729;52.090;13.162;2022-12-07T04:29:24;46.45;;;21.55;;
49834;SDS011;35729;52.090;13.162;2022-12-07T04:31:53;41.70;;;21.08;;
49834;SDS011;35729;52.090;13.162;2022-12-07T04:34:30;42.28;;;21.05;;
49834;SDS011;35729;52.090;13.162;2022-12-07T04:36:59;48.67;;;21.98;;
49834;SDS011;35729;52.090;13.162;2022-12-07T04:39:28;44.05;;;19.88;;
49834;SDS011;35729;52.090;13.162;2022-12-07T04:41:58;41.22;;;20.38;;
49834;SDS011;35729;52.090;13.162;2022-12-07T04:44:28;44.65;;;20.55;;
49834;SDS011;35729;52.090;13.162;2022-12-07T04:46:57;41.38;;;20.67;;
49834;SDS011;35729;52.090;13.162;2022-12-07T04:49:25;43.03;;;20.60;;
49834;SDS011;35729;52.090;13.162;2022-12-07T04:51:56;40.22;;;20.30;;
49834;SDS011;35729;52.090;13.162;2022-12-07T04:54:28;45.22;;;20.55;;
49834;SDS011;35729;52.090;13.162;2022-12-07T04:56:57;43.05;;;19.98;;
49834;SDS011;35729;52.090;13.162;2022-12-07T04:59:25;45.58;;;20.65;;
49834;SDS011;35729;52.090;13.162;2022-12-07T05:01:54;53.53;;;21.33;;
49834;SDS011;35729;52.090;13.162;2022-12-07T05:04:22;48.97;;;22.42;;
49834;SDS011;35729;52.090;13.162;2022-12-07T05:06:51;54.97;;;24.25;;
49834;SDS011;35729;52.090;13.162;2022-12-07T05:09:22;52.75;;;22.05;;
49834;SDS011;35729;52.090;13.162;2022-12-07T05:11:50;54.20;;;22.73;;
49834;SDS011;35729;52.090;13.162;2022-12-07T05:14:19;59.28;;;23.17;;
49834;SDS011;35729;52.090;13.162;2022-12-07T05:16:48;59.85;;;23.58;;
49834;SDS011;35729;52.090;13.162;2022-12-07T05:19:19;60.17;;;23.33;;
49834;SDS011;35729;52.090;13.162;2022-12-07T05:21:47;61.10;;;24.52;;
49834;SDS011;35729;52.090;13.162;2022-12-07T05:24:16;62.85;;;23.45;;
49834;SDS011;35729;52.090;13.162;2022-12-07T05:26:47;66.00;;;25.70;;
49834;SDS011;35729;52.090;13.162;2022-12-07T05:29:16;64.07;;;25.88;;
49834;SDS011;35729;52.090;13.162;2022-12-07T05:31:45;66.82;;;27.50;;
49834;SDS011;35729;52.090;13.162;2022-12-07T05:34:13;70.97;;;28.00;;
49834;SDS011;35729;52.090;13.162;2022-12-07T05:36:42;66.32;;;24.88;;
49834;SDS011;35729;52.090;13.162;2022-12-07T05:39:11;66.68;;;26.45;;
49834;SDS011;35729;52.090;13.162;2022-12-07T05:41:39;70.80;;;25.45;;
49834;SDS011;35729;52.090;13.162;2022-12-07T05:44:23;70.10;;;28.35;;
49834;SDS011;35729;52.090;13.162;2022-12-07T05:46:51;77.82;;;27.17;;
49834;SDS011;35729;52.090;13.162;2022-12-07T05:49:20;71.45;;;26.73;;
49834;SDS011;35729;52.090;13.162;2022-12-07T05:51:48;63.45;;;26.75;;
49834;SDS011;35729;52.090;13.162;2022-12-07T05:54:16;78.35;;;27.65;;
49834;SDS011;35729;52.090;13.162;2022-12-07T05:56:45;71.05;;;25.45;;
49834;SDS011;35729;52.090;13.162;2022-12-07T05:59:14;71.57;;;27.67;;
49834;SDS011;35729;52.090;13.162;2022-12-07T06:01:53;73.18;;;27.83;;
49834;SDS011;35729;52.090;13.162;2022-12-07T06:04:23;71.43;;;29.13;;
49834;SDS011;35729;52.090;13.162;2022-12-07T06:06:52;80.50;;;28.92;;
49834;SDS011;35729;52.090;13.162;2022-12-07T06:09:22;77.30;;;29.17;;
49834;SDS011;35729;52.090;13.162;2022-12-07T06:11:51;76.15;;;28.92;;
49834;SDS011;35729;52.090;13.162;2022-12-07T06:14:32;79.65;;;28.90;;
49834;SDS011;35729;52.090;13.162;2022-12-07T06:17:03;80.07;;;30.20;;
49834;SDS011;35729;52.090;13.162;2022-12-07T06:19:32;89.18;;;30.70;;
49834;SDS011;35729;52.090;13.162;2022-12-07T06:22:01;88.57;;;30.38;;
49834;SDS011;35729;52.090;13.162;2022-12-07T06:24:30;85.28;;;31.15;;
49834;SDS011;35729;52.090;13.162;2022-12-07T06:26:59;86.32;;;31.75;;
49834;SDS011;35729;52.090;13.162;2022-12-07T06:29:28;81.25;;;29.60;;
49834;SDS011;35729;52.090;13.162;2022-12-07T06:31:56;78.75;;;28.48;;
49834;SDS011;35729;52.090;13.162;2022-12-07T06:34:27;88.82;;;30.35;;
49834;SDS011;35729;52.090;13.162;2022-12-07T06:36:56;82.20;;;30.08;;
49834;SDS011;35729;52.090;13.162;2022-12-07T06:39:25;85.03;;;30.95;;
49834;SDS011;35729;52.090;13.162;2022-12-07T06:41:54;90.65;;;31.85;;
49834;SDS011;35729;52.090;13.162;2022-12-07T06:44:23;82.03;;;31.30;;
49834;SDS011;35729;52.090;13.162;2022-12-07T06:46:52;86.45;;;31.63;;
49834;SDS011;35729;52.090;13.162;2022-12-07T06:49:21;87.20;;;31.73;;
49834;SDS011;35729;52.090;13.162;2022-12-07T06:51:52;79.20;;;32.83;;
49834;SDS011;35729;52.090;13.162;2022-12-07T06:54:21;82.30;;;30.67;;
49834;SDS011;35729;52.090;13.162;2022-12-07T06:56:49;89.82;;;32.72;;
49834;SDS011;35729;52.090;13.162;2022-12-07T06:59:18;79.60;;;30.33;;
49834;SDS011;35729;52.090;13.162;2022-12-07T07:01:46;78.72;;;31.08;;
49834;SDS011;35729;52.090;13.162;2022-12-07T07:04:15;74.35;;;30.75;;
49834;SDS011;35729;52.090;13.162;2022-12-07T07:06:43;73.63;;;31.60;;
49834;SDS011;35729;52.090;13.162;2022-12-07T07:09:14;70.80;;;29.35;;
49834;SDS011;35729;52.090;13.162;2022-12-07T07:11:43;76.18;;;30.90;;
49834;SDS011;35729;52.090;13.162;2022-12-07T07:14:11;68.63;;;27.90;;
49834;SDS011;35729;52.090;13.162;2022-12-07T07:16:44;65.57;;;29.15;;
49834;SDS011;35729;52.090;13.162;2022-12-07T07:19:12;68.60;;;30.05;;
49834;SDS011;35729;52.090;13.162;2022-12-07T07:21:40;64.78;;;29.48;;
49834;SDS011;35729;52.090;13.162;2022-12-07T07:24:09;61.60;;;27.50;;
49834;SDS011;35729;52.090;13.162;2022-12-07T07:26:40;63.95;;;28.77;;
49834;SDS011;35729;52.090;13.162;2022-12-07T07:29:09;56.17;;;27.38;;
49834;SDS011;35729;52.090;13.162;2022-12-07T07:31:37;54.10;;;26.77;;
49834;SDS011;35729;52.090;13.162;2022-12-07T07:34:06;55.70;;;27.90;;
49834;SDS011;35729;52.090;13.162;2022-12-07T07:36:34;56.15;;;27.13;;
49834;SDS011;35729;52.090;13.162;2022-12-07T07:39:03;60.33;;;28.92;;
49834;SDS011;35729;52.090;13.162;2022-12-07T07:41:31;47.53;;;25.15;;
49834;SDS011;35729;52.090;13.162;2022-12-07T07:44:03;50.00;;;26.50;;
49834;SDS011;35729;52.090;13.162;2022-12-07T07:46:31;46.83;;;24.83;;
49834;SDS011;35729;52.090;13.162;2022-12-07T07:49:00;56.97;;;26.48;;
49834;SDS011;35729;52.090;13.162;2022-12-07T07:51:28;48.60;;;25.60;;
49834;SDS011;35729;52.090;13.162;2022-12-07T07:53:57;44.03;;;23.55;;
49834;SDS011;35729;52.090;13.162;2022-12-07T07:56:25;45.67;;;24.73;;
49834;SDS011;35729;52.090;13.162;2022-12-07T07:58:54;44.20;;;22.67;;
49834;SDS011;35729;52.090;13.162;2022-12-07T08:01:25;45.47;;;24.77;;
49834;SDS011;35729;52.090;13.162;2022-12-07T08:03:54;37.83;;;21.90;;
49834;SDS011;35729;52.090;13.162;2022-12-07T08:06:22;45.33;;;22.23;;
49834;SDS011;35729;52.090;13.162;2022-12-07T08:08:51;39.63;;;22.98;;
49834;SDS011;35729;52.090;13.162;2022-12-07T08:11:20;39.90;;;22.35;;
49834;SDS011;35729;52.090;13.162;2022-12-07T08:13:48;35.17;;;20.40;;
49834;SDS011;35729;52.090;13.162;2022-12-07T08:16:17;34.97;;;21.10;;
49834;SDS011;35729;52.090;13.162;2022-12-07T08:18:48;37.92;;;21.38;;
49834;SDS011;35729;52.090;13.162;2022-12-07T08:21:16;36.58;;;21.90;;
49834;SDS011;35729;52.090;13.162;2022-12-07T08:23:45;39.92;;;21.83;;
49834;SDS011;35729;52.090;13.162;2022-12-07T08:26:14;38.55;;;21.23;;
49834;SDS011;35729;52.090;13.162;2022-12-07T08:28:43;37.15;;;20.65;;
49834;SDS011;35729;52.090;13.162;2022-12-07T08:31:13;39.45;;;21.77;;
49834;SDS011;35729;52.090;13.162;2022-12-07T08:33:44;35.80;;;21.38;;
49834;SDS011;35729;52.090;13.162;2022-12-07T08:36:16;38.05;;;23.17;;
49834;SDS011;35729;52.090;13.162;2022-12-07T08:38:46;36.58;;;21.65;;
49834;SDS011;35729;52.090;13.162;2022-12-07T08:41:15;33.88;;;20.85;;
49834;SDS011;35729;52.090;13.162;2022-12-07T08:43:43;30.98;;;19.13;;
49834;SDS011;35729;52.090;13.162;2022-12-07T08:46:13;40.92;;;23.52;;
49834;SDS011;35729;52.090;13.162;2022-12-07T08:48:51;37.65;;;21.15;;
49834;SDS011;35729;52.090;13.162;2022-12-07T08:51:22;30.55;;;18.10;;
49834;SDS011;35729;52.090;13.162;2022-12-07T08:53:51;30.92;;;19.35;;
49834;SDS011;35729;52.090;13.162;2022-12-07T08:56:21;34.88;;;21.38;;
49834;SDS011;35729;52.090;13.162;2022-12-07T08:58:50;37.83;;;20.83;;
49834;SDS011;35729;52.090;13.162;2022-12-07T09:01:18;32.08;;;20.77;;
49834;SDS011;35729;52.090;13.162;2022-12-07T09:03:49;26.10;;;18.15;;
49834;SDS011;35729;52.090;13.162;2022-12-07T09:06:18;34.75;;;21.25;;
49834;SDS011;35729;52.090;13.162;2022-12-07T09:08:47;27.75;;;16.85;;
49834;SDS011;35729;52.090;13.162;2022-12-07T09:11:19;32.58;;;18.77;;
49834;SDS011;35729;52.090;13.162;2022-12-07T09:13:47;23.00;;;15.80;;
49834;SDS011;35729;52.090;13.162;2022-12-07T09:16:16;21.52;;;14.88;;
49834;SDS011;35729;52.090;13.162;2022-12-07T09:18:44;24.05;;;15.00;;
49834;SDS011;35729;52.090;13.162;2022-12-07T09:21:15;22.33;;;14.98;;
49834;SDS011;35729;52.090;13.162;2022-12-07T09:23:44;21.10;;;13.77;;
49834;SDS011;35729;52.090;13.162;2022-12-07T09:26:12;20.95;;;13.07;;
49834;SDS011;35729;52.090;13.162;2022-12-07T09:28:40;17.77;;;12.25;;
49834;SDS011;35729;52.090;13.162;2022-12-07T09:31:09;18.63;;;12.50;;
49834;SDS011;35729;52.090;13.162;2022-12-07T09:33:37;15.30;;;11.15;;
49834;SDS011;35729;52.090;13.162;2022-12-07T09:36:06;13.98;;;9.63;;
49834;SDS011;35729;52.090;13.162;2022-12-07T09:38:38;13.32;;;8.65;;
49834;SDS011;35729;52.090;13.162;2022-12-07T09:41:06;10.77;;;8.25;;
49834;SDS011;35729;52.090;13.162;2022-12-07T09:43:35;9.10;;;6.80;;
49834;SDS011;35729;52.090;13.162;2022-12-07T09:46:08;12.27;;;7.40;;
49834;SDS011;35729;52.090;13.162;2022-12-07T09:48:41;9.95;;;6.95;;
49834;SDS011;35729;52.090;13.162;2022-12-07T09:51:13;10.48;;;6.75;;
49834;SDS011;35729;52.090;13.162;2022-12-07T09:54:11;8.70;;;6.60;;
49834;SDS011;35729;52.090;13.162;2022-12-07T09:56:41;7.28;;;6.53;;
49834;SDS011;35729;52.090;13.162;2022-12-07T09:59:12;10.05;;;6.47;;
49834;SDS011;35729;52.090;13.162;2022-12-07T10:01:45;9.82;;;7.15;;
49834;SDS011;35729;52.090;13.162;2022-12-07T10:04:16;10.70;;;7.28;;
49834;SDS011;35729;52.090;13.162;2022-12-07T10:06:46;10.27;;;6.03;;
49834;SDS011;35729;52.090;13.162;2022-12-07T10:09:19;6.90;;;5.88;;
49834;SDS011;35729;52.090;13.162;2022-12-07T10:12:04;6.95;;;5.53;;
49834;SDS011;35729;52.090;13.162;2022-12-07T10:17:10;9.32;;;5.80;;
49834;SDS011;35729;52.090;13.162;2022-12-07T10:22:53;11.35;;;5.78;;
49834;SDS011;35729;52.090;13.162;2022-12-07T10:25:26;9.05;;;5.30;;
49834;SDS011;35729;52.090;13.162;2022-12-07T10:27:58;9.18;;;4.45;;
49834;SDS011;35729;52.090;13.162;2022-12-07T10:30:28;7.40;;;5.05;;
49834;SDS011;35729;52.090;13.162;2022-12-07T10:33:08;7.32;;;5.30;;
49834;SDS011;35729;52.090;13.162;2022-12-07T10:35:55;7.88;;;4.95;;
49834;SDS011;35729;52.090;13.162;2022-12-07T10:38:24;5.65;;;4.43;;
49834;SDS011;35729;52.090;13.162;2022-12-07T10:41:07;6.60;;;4.88;;
49834;SDS011;35729;52.090;13.162;2022-12-07T10:43:35;5.75;;;4.03;;
49834;SDS011;35729;52.090;13.162;2022-12-07T10:46:13;9.90;;;5.70;;
49834;SDS011;35729;52.090;13.162;2022-12-07T10:49:03;8.98;;;4.97;;
49834;SDS011;35729;52.090;13.162;2022-12-07T10:51:47;6.28;;;4.50;;
49834;SDS011;35729;52.090;13.162;2022-12-07T10:54:25;7.75;;;4.75;;
49834;SDS011;35729;52.090;13.162;2022-12-07T10:57:09;7.68;;;4.85;;
49834;SDS011;35729;52.090;13.162;2022-12-07T11:00:01;6.75;;;4.68;;
49834;SDS011;35729;52.090;13.162;2022-12-07T11:05:36;9.73;;;4.53;;
49834;SDS011;35729;52.090;13.162;2022-12-07T11:08:13;6.95;;;4.43;;
49834;SDS011;35729;52.090;13.162;2022-12-07T11:10:50;5.32;;;4.05;;
49834;SDS011;35729;52.090;13.162;2022-12-07T11:13:28;6.93;;;4.40;;
49834;SDS011;35729;52.090;13.162;2022-12-07T11:16:12;9.13;;;4.32;;
49834;SDS011;35729;52.090;13.162;2022-12-07T11:18:50;5.80;;;4.60;;
49834;SDS011;35729;52.090;13.162;2022-12-07T11:21:27;8.43;;;4.30;;
49834;SDS011;35729;52.090;13.162;2022-12-07T11:24:04;7.15;;;5.53;;
49834;SDS011;35729;52.090;13.162;2022-12-07T11:26:45;6.18;;;4.43;;
49834;SDS011;35729;52.090;13.162;2022-12-07T11:29:34;8.32;;;4.20;;
49834;SDS011;35729;52.090;13.162;2022-12-07T11:32:22;6.93;;;4.90;;
49834;SDS011;35729;52.090;13.162;2022-12-07T11:35:08;10.43;;;4.80;;
49834;SDS011;35729;52.090;13.162;2022-12-07T11:37:42;7.00;;;4.80;;
49834;SDS011;35729;52.090;13.162;2022-12-07T11:40:14;8.20;;;4.28;;
49834;SDS011;35729;52.090;13.162;2022-12-07T11:42:49;9.65;;;4.72;;
49834;SDS011;35729;52.090;13.162;2022-12-07T11:45:25;6.13;;;4.07;;
49834;SDS011;35729;52.090;13.162;2022-12-07T11:50:30;5.85;;;4.38;;
49834;SDS011;35729;52.090;13.162;2022-12-07T11:53:03;8.52;;;4.88;;
49834;SDS011;35729;52.090;13.162;2022-12-07T11:55:42;5.25;;;4.00;;
49834;SDS011;35729;52.090;13.162;2022-12-07T11:58:33;6.00;;;4.28;;
49834;SDS011;35729;52.090;13.162;2022-12-07T12:01:13;7.35;;;4.53;;
49834;SDS011;35729;52.090;13.162;2022-12-07T12:03:52;7.13;;;4.70;;
49834;SDS011;35729;52.090;13.162;2022-12-07T12:06:25;7.28;;;3.92;;
49834;SDS011;35729;52.090;13.162;2022-12-07T12:08:55;5.18;;;3.58;;
49834;SDS011;35729;52.090;13.162;2022-12-07T12:11:35;8.18;;;4.22;;
49834;SDS011;35729;52.090;13.162;2022-12-07T12:14:26;7.57;;;4.38;;
49834;SDS011;35729;52.090;13.162;2022-12-07T12:17:17;6.43;;;3.55;;
49834;SDS011;35729;52.090;13.162;2022-12-07T12:19:58;8.95;;;4.32;;
49834;SDS011;35729;52.090;13.162;2022-12-07T12:22:32;8.30;;;5.38;;
49834;SDS011;35729;52.090;13.162;2022-12-07T12:25:05;16.30;;;7.20;;
49834;SDS011;35729;52.090;13.162;2022-12-07T12:27:42;18.50;;;7.90;;
49834;SDS011;35729;52.090;13.162;2022-12-07T12:33:12;22.08;;;9.55;;
49834;SDS011;35729;52.090;13.162;2022-12-07T12:35:44;13.73;;;6.40;;
49834;SDS011;35729;52.090;13.162;2022-12-07T12:38:25;11.25;;;5.53;;
49834;SDS011;35729;52.090;13.162;2022-12-07T12:40:58;7.55;;;4.25;;
49834;SDS011;35729;52.090;13.162;2022-12-07T12:43:40;9.38;;;4.40;;
49834;SDS011;35729;52.090;13.162;2022-12-07T12:58:33;7.03;;;3.53;;
49834;SDS011;35729;52.090;13.162;2022-12-07T13:04:14;7.53;;;4.13;;
49834;SDS011;35729;52.090;13.162;2022-12-07T13:06:58;6.95;;;3.72;;
49834;SDS011;35729;52.090;13.162;2022-12-07T13:09:28;7.60;;;3.67;;
49834;SDS011;35729;52.090;13.162;2022-12-07T13:12:02;6.53;;;3.75;;
49834;SDS011;35729;52.090;13.162;2022-12-07T13:20:02;10.35;;;3.80;;
49834;SDS011;35729;52.090;13.162;2022-12-07T13:25:33;9.77;;;4.28;;
49834;SDS011;35729;52.090;13.162;2022-12-07T13:28:10;6.30;;;4.20;;
49834;SDS011;35729;52.090;13.162;2022-12-07T13:30:45;6.25;;;4.32;;
49834;SDS011;35729;52.090;13.162;2022-12-07T13:33:18;5.53;;;3.88;;
49834;SDS011;35729;52.090;13.162;2022-12-07T13:35:47;8.20;;;4.68;;
49834;SDS011;35729;52.090;13.162;2022-12-07T13:38:21;7.68;;;4.07;;
49834;SDS011;35729;52.090;13.162;2022-12-07T13:40:59;5.63;;;4.00;;
49834;SDS011;35729;52.090;13.162;2022-12-07T13:43:41;12.45;;;4.47;;
49834;SDS011;35729;52.090;13.162;2022-12-07T13:46:11;5.70;;;3.90;;
49834;SDS011;35729;52.090;13.162;2022-12-07T13:48:43;6.32;;;3.90;;
49834;SDS011;35729;52.090;13.162;2022-12-07T13:51:18;8.50;;;4.82;;
49834;SDS011;35729;52.090;13.162;2022-12-07T13:56:25;8.32;;;4.60;;
49834;SDS011;35729;52.090;13.162;2022-12-07T13:58:56;14.02;;;4.68;;
49834;SDS011;35729;52.090;13.162;2022-12-07T14:01:25;10.98;;;5.47;;
49834;SDS011;35729;52.090;13.162;2022-12-07T14:03:54;11.40;;;5.00;;
49834;SDS011;35729;52.090;13.162;2022-12-07T14:06:24;10.82;;;5.00;;
49834;SDS011;35729;52.090;13.162;2022-12-07T14:09:16;7.10;;;4.88;;
49834;SDS011;35729;52.090;13.162;2022-12-07T14:11:47;8.30;;;4.63;;
49834;SDS011;35729;52.090;13.162;2022-12-07T14:14:18;9.73;;;5.60;;
49834;SDS011;35729;52.090;13.162;2022-12-07T14:16:55;6.65;;;4.47;;
49834;SDS011;35729;52.090;13.162;2022-12-07T14:19:40;14.40;;;6.20;;
49834;SDS011;35729;52.090;13.162;2022-12-07T14:22:19;12.02;;;5.90;;
49834;SDS011;35729;52.090;13.162;2022-12-07T14:25:13;11.93;;;5.28;;
49834;SDS011;35729;52.090;13.162;2022-12-07T14:27:50;10.32;;;4.75;;
49834;SDS011;35729;52.090;13.162;2022-12-07T14:33:34;10.75;;;4.78;;
49834;SDS011;35729;52.090;13.162;2022-12-07T14:36:09;6.95;;;4.20;;
49834;SDS011;35729;52.090;13.162;2022-12-07T14:38:38;8.77;;;3.40;;
49834;SDS011;35729;52.090;13.162;2022-12-07T14:41:12;11.50;;;3.97;;
49834;SDS011;35729;52.090;13.162;2022-12-07T14:43:57;9.38;;;3.78;;
49834;SDS011;35729;52.090;13.162;2022-12-07T14:46:26;8.73;;;4.10;;
49834;SDS011;35729;52.090;13.162;2022-12-07T14:48:55;9.10;;;3.40;;
49834;SDS011;35729;52.090;13.162;2022-12-07T14:51:23;10.13;;;3.63;;
49834;SDS011;35729;52.090;13.162;2022-12-07T14:53:52;7.03;;;3.42;;
49834;SDS011;35729;52.090;13.162;2022-12-07T14:56:23;4.97;;;3.35;;
49834;SDS011;35729;52.090;13.162;2022-12-07T14:58:52;7.55;;;3.63;;
49834;SDS011;35729;52.090;13.162;2022-12-07T15:01:21;7.32;;;3.17;;
49834;SDS011;35729;52.090;13.162;2022-12-07T15:03:50;11.40;;;4.13;;
49834;SDS011;35729;52.090;13.162;2022-12-07T15:06:18;10.13;;;4.25;;
49834;SDS011;35729;52.090;13.162;2022-12-07T15:08:47;16.73;;;5.38;;
49834;SDS011;35729;52.090;13.162;2022-12-07T15:11:16;10.70;;;4.43;;
49834;SDS011;35729;52.090;13.162;2022-12-07T15:13:48;21.33;;;4.93;;
49834;SDS011;35729;52.090;13.162;2022-12-07T15:16:29;11.43;;;4.32;;
49834;SDS011;35729;52.090;13.162;2022-12-07T15:18:58;6.47;;;4.25;;
49834;SDS011;35729;52.090;13.162;2022-12-07T15:21:26;9.50;;;4.93;;
49834;SDS011;35729;52.090;13.162;2022-12-07T15:23:54;7.65;;;3.85;;
49834;SDS011;35729;52.090;13.162;2022-12-07T15:26:23;8.85;;;4.22;;
49834;SDS011;35729;52.090;13.162;2022-12-07T15:28:55;8.80;;;4.30;;
49834;SDS011;35729;52.090;13.162;2022-12-07T15:31:23;9.68;;;5.00;;
49834;SDS011;35729;52.090;13.162;2022-12-07T15:33:51;8.70;;;4.15;;
49834;SDS011;35729;52.090;13.162;2022-12-07T15:36:21;7.28;;;4.30;;
49834;SDS011;35729;52.090;13.162;2022-12-07T15:38:50;13.77;;;5.90;;